Aviation Digital Data Service (ADDS)

Output produced by TAFs form (1416 UTC 05 May 2016)
found at http://aviationweather.gov/adds/tafs/
 
KEGE 051120Z 0512/0612 VRB03KT P6SM SKC 
     FM051900 22010G15KT P6SM SCT250 
     FM060200 12005KT P6SM BKN250 AMD LTD TO CLD VIS AND WIND TIL 051500